createdAt,value
2022-10-09T00:01:45.407Z,11.93
2022-10-09T00:04:13.262Z,11.69
2022-10-09T00:06:42.671Z,10.73
2022-10-09T00:09:10.579Z,12.53
2022-10-09T00:11:38.442Z,10.86
2022-10-09T00:14:06.361Z,11.57
2022-10-09T00:16:34.756Z,10.05
2022-10-09T00:19:02.811Z,11.33
2022-10-09T00:21:31.815Z,11.86
2022-10-09T00:24:02.452Z,11.87
2022-10-09T00:26:30.352Z,10.73
2022-10-09T00:28:58.305Z,11.66
2022-10-09T00:31:26.229Z,10.89
2022-10-09T00:33:57.339Z,11.20
2022-10-09T00:36:27.943Z,10.69
2022-10-09T00:38:56.245Z,12.25
2022-10-09T00:41:29.443Z,11.44
2022-10-09T00:43:58.295Z,12.15
2022-10-09T00:46:33.747Z,10.92
2022-10-09T00:49:04.944Z,10.86
2022-10-09T00:51:32.828Z,11.15
2022-10-09T00:54:05.991Z,10.09
2022-10-09T00:56:35.665Z,10.21
2022-10-09T00:59:03.877Z,9.03
2022-10-09T01:04:42.900Z,11.01
2022-10-09T01:07:23.655Z,11.89
2022-10-09T01:09:56.690Z,9.57
2022-10-09T01:12:30.644Z,10.48
2022-10-09T01:15:02.455Z,10.07
2022-10-09T01:17:38.030Z,9.39
2022-10-09T01:20:29.029Z,11.85
2022-10-09T01:23:07.189Z,11.79
2022-10-09T01:25:38.927Z,11.12
2022-10-09T01:28:08.458Z,11.75
2022-10-09T01:30:36.898Z,10.59
2022-10-09T01:33:05.041Z,11.02
2022-10-09T01:35:33.082Z,10.93
2022-10-09T01:38:03.622Z,9.69
2022-10-09T01:40:33.899Z,9.90
2022-10-09T01:43:01.946Z,9.71
2022-10-09T01:45:38.785Z,10.03
2022-10-09T01:48:13.673Z,11.56
2022-10-09T01:50:42.714Z,9.95
2022-10-09T01:53:12.614Z,10.05
2022-10-09T01:55:44.263Z,9.50
2022-10-09T01:58:15.225Z,10.38
2022-10-09T02:00:46.391Z,10.94
2022-10-09T02:03:15.656Z,11.52
2022-10-09T02:05:46.920Z,8.95
2022-10-09T02:08:16.555Z,10.16
2022-10-09T02:10:44.424Z,10.64
2022-10-09T02:13:15.432Z,11.09
2022-10-09T02:15:47.220Z,11.18
2022-10-09T02:18:16.379Z,9.94
2022-10-09T02:20:46.801Z,8.98
2022-10-09T02:23:14.929Z,11.32
2022-10-09T02:25:43.109Z,9.81
2022-10-09T02:28:10.949Z,11.25
2022-10-09T02:30:53.585Z,10.92
2022-10-09T02:33:27.958Z,11.03
2022-10-09T02:35:56.019Z,9.58
2022-10-09T02:38:23.834Z,8.87
2022-10-09T02:40:52.082Z,10.25
2022-10-09T02:43:20.067Z,11.12
2022-10-09T02:45:48.001Z,10.23
2022-10-09T02:48:17.366Z,11.08
2022-10-09T02:50:45.367Z,9.65
2022-10-09T02:53:13.154Z,9.08
2022-10-09T02:55:40.950Z,11.02
2022-10-09T02:58:08.888Z,11.02
2022-10-09T03:00:39.632Z,11.02
2022-10-09T03:03:07.511Z,11.00
2022-10-09T03:05:36.787Z,8.67
2022-10-09T03:08:04.627Z,10.96
2022-10-09T03:10:32.735Z,9.02
2022-10-09T03:13:00.582Z,9.96
2022-10-09T03:15:28.537Z,9.13
2022-10-09T03:17:56.898Z,10.91
2022-10-09T03:20:24.883Z,9.34
2022-10-09T03:22:54.350Z,8.66
2022-10-09T03:25:22.239Z,8.66
2022-10-09T03:27:50.092Z,9.62
2022-10-09T03:30:17.892Z,9.91
2022-10-09T03:32:45.820Z,9.99
2022-10-09T03:35:13.884Z,8.21
2022-10-09T03:37:41.832Z,10.04
2022-10-09T03:40:11.912Z,9.77
2022-10-09T03:42:39.850Z,10.79
2022-10-09T03:45:08.685Z,8.88
2022-10-09T03:47:36.591Z,9.92
2022-10-09T03:50:05.005Z,10.72
2022-10-09T03:52:33.011Z,10.71
2022-10-09T03:55:01.339Z,10.68
2022-10-09T03:57:31.312Z,10.51
2022-10-09T03:59:59.659Z,8.10
2022-10-09T04:02:27.740Z,9.53
2022-10-09T04:04:55.878Z,8.61
2022-10-09T04:07:23.958Z,8.71
2022-10-09T04:09:52.392Z,8.59
2022-10-09T04:12:20.769Z,10.47
2022-10-09T04:14:50.106Z,9.36
2022-10-09T04:17:18.170Z,9.93
2022-10-09T04:19:46.165Z,9.78
2022-10-09T04:22:14.055Z,8.84
2022-10-09T04:24:42.010Z,9.70
2022-10-09T04:27:09.833Z,9.72
2022-10-09T04:29:37.661Z,9.25
2022-10-09T04:32:07.139Z,10.33
2022-10-09T04:34:34.895Z,8.38
2022-10-09T04:37:02.760Z,9.61
2022-10-09T04:39:30.875Z,9.71
2022-10-09T04:42:00.688Z,8.28
2022-10-09T04:44:28.467Z,9.77
2022-10-09T04:46:56.351Z,7.65
2022-10-09T04:49:25.633Z,10.15
2022-10-09T04:51:53.545Z,8.23
2022-10-09T04:54:21.550Z,10.00
2022-10-09T04:56:49.352Z,7.47
2022-10-09T04:59:17.680Z,8.50
2022-10-09T05:29:36.774Z,9.65
2022-10-09T05:32:05.946Z,9.61
2022-10-09T05:34:34.464Z,9.61
2022-10-09T05:37:02.211Z,9.46
2022-10-09T05:39:29.841Z,9.67
2022-10-09T05:41:57.547Z,9.57
2022-10-09T05:44:25.239Z,9.64
2022-10-09T05:46:52.943Z,9.43
2022-10-09T05:49:21.904Z,9.58
2022-10-09T05:51:55.855Z,9.62
2022-10-09T05:54:23.462Z,9.66
2022-10-09T05:56:51.318Z,9.69
2022-10-09T05:59:20.070Z,9.70
2022-10-09T06:01:49.431Z,9.63
2022-10-09T06:04:17.853Z,9.74
2022-10-09T06:06:48.386Z,9.73
2022-10-09T06:09:16.590Z,9.50
2022-10-09T06:11:46.004Z,9.79
2022-10-09T06:14:15.051Z,9.40
2022-10-09T06:19:19.846Z,9.05
2022-10-09T06:21:49.289Z,9.92
2022-10-09T06:24:22.164Z,8.62
2022-10-09T06:26:52.708Z,9.14
2022-10-09T06:29:20.473Z,9.83
2022-10-09T06:31:48.030Z,10.14
2022-10-09T06:34:15.737Z,9.75
2022-10-09T06:36:43.355Z,10.41
2022-10-09T06:39:12.605Z,10.79
2022-10-09T06:41:40.179Z,11.51
2022-10-09T06:44:11.738Z,12.16
2022-10-09T06:46:42.218Z,12.83
2022-10-09T06:49:10.864Z,13.10
2022-10-09T06:51:39.783Z,13.90
2022-10-09T06:54:13.113Z,14.29
2022-10-09T07:00:48.937Z,14.17
2022-10-09T07:03:22.068Z,15.59
2022-10-09T07:05:49.717Z,15.89
2022-10-09T07:08:17.274Z,16.23
2022-10-09T07:10:46.885Z,16.28
2022-10-09T07:13:14.484Z,16.99
2022-10-09T07:15:45.893Z,16.98
2022-10-09T07:18:13.545Z,17.70
2022-10-09T07:20:41.152Z,18.21
2022-10-09T07:23:09.316Z,18.63
2022-10-09T07:25:39.761Z,19.00
2022-10-09T07:28:08.881Z,19.69
2022-10-09T07:30:38.644Z,20.17
2022-10-09T07:33:08.104Z,20.65
2022-10-09T07:38:10.066Z,21.46
2022-10-09T07:40:37.848Z,21.85
2022-10-09T07:43:09.128Z,22.45
2022-10-09T07:48:13.816Z,23.42
2022-10-09T07:50:41.591Z,24.08
2022-10-09T07:53:09.929Z,24.04
2022-10-09T07:55:37.810Z,23.02
2022-10-09T07:58:05.738Z,25.17
2022-10-09T08:00:33.796Z,25.92
2022-10-09T08:03:01.841Z,25.90
2022-10-09T08:05:31.135Z,26.91
2022-10-09T08:07:59.146Z,26.71
2022-10-09T08:10:26.811Z,27.85
2022-10-09T08:12:54.610Z,27.84
2022-10-09T08:15:22.347Z,28.27
2022-10-09T08:17:50.145Z,29.38
2022-10-09T08:20:18.228Z,29.24
2022-10-09T08:22:47.732Z,30.35
2022-10-09T08:25:16.102Z,30.10
2022-10-09T08:27:43.896Z,29.52
2022-10-09T08:30:12.402Z,31.33
2022-10-09T08:32:41.493Z,31.45
2022-10-09T08:35:10.113Z,31.42
2022-10-09T08:37:37.985Z,30.13
2022-10-09T08:40:08.121Z,30.45
2022-10-09T08:42:39.791Z,31.48
2022-10-09T08:45:12.573Z,31.54
2022-10-09T08:47:42.531Z,31.84
2022-10-09T08:50:12.841Z,31.90
2022-10-09T08:52:47.853Z,31.71
2022-10-09T08:55:21.432Z,31.25
2022-10-09T08:57:51.585Z,31.18
2022-10-09T09:00:20.512Z,32.77
2022-10-09T09:02:59.345Z,30.70
2022-10-09T09:05:32.291Z,33.13
2022-10-09T09:08:02.941Z,32.22
2022-10-09T09:10:37.027Z,33.36
2022-10-09T09:13:08.025Z,31.76
2022-10-09T09:15:42.857Z,31.76
2022-10-09T09:18:19.271Z,32.51
2022-10-09T09:20:51.690Z,33.96
2022-10-09T09:23:19.546Z,33.99
2022-10-09T09:25:48.890Z,33.75
2022-10-09T09:28:18.919Z,34.00
2022-10-09T09:30:48.416Z,35.49
2022-10-09T09:33:19.188Z,35.42
2022-10-09T09:35:50.376Z,35.31
2022-10-09T09:38:18.558Z,36.94
2022-10-09T09:40:47.431Z,37.07
2022-10-09T09:43:19.093Z,36.08
2022-10-09T09:45:47.326Z,36.08
2022-10-09T09:48:16.963Z,37.23
2022-10-09T09:50:53.125Z,37.33
2022-10-09T09:53:35.136Z,37.74
2022-10-09T09:56:03.372Z,38.22
2022-10-09T09:58:35.029Z,38.17
2022-10-09T10:01:03.745Z,38.53
2022-10-09T10:03:32.226Z,36.41
2022-10-09T10:06:00.437Z,35.23
2022-10-09T10:08:30.036Z,37.23
2022-10-09T10:10:58.522Z,36.55
2022-10-09T10:13:31.587Z,38.30
2022-10-09T10:16:01.283Z,37.68
2022-10-09T10:18:34.006Z,38.49
2022-10-09T10:21:05.849Z,37.50
2022-10-09T10:23:36.775Z,38.47
2022-10-09T10:26:08.381Z,39.56
2022-10-09T10:28:39.499Z,38.55
2022-10-09T10:31:09.492Z,39.06
2022-10-09T10:33:37.694Z,38.79
2022-10-09T10:36:05.860Z,39.14
2022-10-09T10:38:34.965Z,38.26
2022-10-09T10:41:09.952Z,39.09
2022-10-09T10:43:40.866Z,38.36
2022-10-09T10:46:13.752Z,40.32
2022-10-09T10:48:43.122Z,39.74
2022-10-09T10:51:18.813Z,40.54
2022-10-09T10:53:54.014Z,39.00
2022-10-09T10:56:25.557Z,40.90
2022-10-09T10:58:58.785Z,41.32
2022-10-09T11:01:32.207Z,42.14
2022-10-09T11:04:12.284Z,41.01
2022-10-09T11:06:42.762Z,40.09
2022-10-09T11:09:20.996Z,41.87
2022-10-09T11:11:50.158Z,42.68
2022-10-09T11:14:25.737Z,43.64
2022-10-09T11:17:01.136Z,43.10
2022-10-09T11:19:53.152Z,41.39
2022-10-09T11:22:38.165Z,42.87
2022-10-09T11:25:15.633Z,42.35
2022-10-09T11:27:45.646Z,44.96
2022-10-09T11:30:14.754Z,44.16
2022-10-09T11:32:50.471Z,44.48
2022-10-09T11:35:21.488Z,45.73
2022-10-09T11:37:54.048Z,45.25
2022-10-09T11:40:23.991Z,46.79
2022-10-09T11:42:55.066Z,47.92
2022-10-09T11:45:24.579Z,47.67
2022-10-09T11:47:57.054Z,48.18
2022-10-09T11:50:33.827Z,48.16
2022-10-09T11:53:03.802Z,48.24
2022-10-09T11:55:32.636Z,46.85
2022-10-09T11:58:09.480Z,46.05
2022-10-09T12:00:37.549Z,45.28
2022-10-09T12:03:07.405Z,43.76
2022-10-09T12:05:41.459Z,43.81
2022-10-09T12:08:18.263Z,41.19
2022-10-09T12:10:51.604Z,39.02
2022-10-09T12:13:31.822Z,38.44
2022-10-09T12:16:00.419Z,34.78
2022-10-09T12:18:32.249Z,33.37
2022-10-09T12:21:02.065Z,33.03
2022-10-09T12:23:31.711Z,31.75
2022-10-09T12:26:05.197Z,30.54
2022-10-09T12:28:36.681Z,28.71
2022-10-09T12:31:07.031Z,29.15
2022-10-09T12:33:41.257Z,28.43
2022-10-09T12:36:26.457Z,25.66
2022-10-09T12:38:55.052Z,27.05
2022-10-09T12:41:27.985Z,25.20
2022-10-09T12:44:00.153Z,26.38
2022-10-09T12:46:30.312Z,24.99
2022-10-09T12:48:59.894Z,26.43
2022-10-09T12:51:29.712Z,26.10
2022-10-09T12:53:58.066Z,25.00
2022-10-09T12:56:28.212Z,24.12
2022-10-09T12:58:56.221Z,24.53
2022-10-09T13:01:24.456Z,25.08
2022-10-09T13:03:57.416Z,23.24
2022-10-09T13:06:28.153Z,22.86
2022-10-09T13:08:57.914Z,22.20
2022-10-09T13:11:29.628Z,22.78
2022-10-09T13:13:57.888Z,23.63
2022-10-09T13:16:25.977Z,24.03
2022-10-09T13:18:57.521Z,24.49
2022-10-09T13:21:29.138Z,23.76
2022-10-09T13:24:08.222Z,23.52
2022-10-09T13:26:37.440Z,22.36
2022-10-09T13:29:05.237Z,23.26
2022-10-09T13:31:33.933Z,21.25
2022-10-09T13:34:02.617Z,22.45
2022-10-09T13:36:32.433Z,23.99
2022-10-09T13:39:00.965Z,23.97
2022-10-09T13:41:28.614Z,23.94
2022-10-09T13:43:56.254Z,23.90
2022-10-09T13:46:24.002Z,23.82
2022-10-09T13:48:51.665Z,23.75
2022-10-09T13:51:19.281Z,23.63
2022-10-09T13:53:48.205Z,23.55
2022-10-09T13:56:16.041Z,23.51
2022-10-09T13:58:43.637Z,23.48
2022-10-09T14:01:11.369Z,23.15
2022-10-09T14:03:39.025Z,23.47
2022-10-09T14:06:07.206Z,23.37
2022-10-09T14:08:34.791Z,23.37
2022-10-09T14:11:03.805Z,23.22
2022-10-09T14:13:31.418Z,23.22
2022-10-09T14:15:59.124Z,23.23
2022-10-09T14:18:26.902Z,23.22
2022-10-09T14:20:54.851Z,23.19
2022-10-09T14:23:22.528Z,23.11
2022-10-09T14:25:50.233Z,23.01
2022-10-09T14:28:19.214Z,23.03
2022-10-09T14:30:46.896Z,23.07
2022-10-09T14:33:14.524Z,22.98
2022-10-09T14:35:42.278Z,22.93
2022-10-09T14:38:10.044Z,22.89
2022-10-09T14:40:42.708Z,22.85
2022-10-09T14:43:10.787Z,22.82
2022-10-09T14:45:39.779Z,22.76
2022-10-09T14:48:07.441Z,22.74
2022-10-09T14:50:36.337Z,22.58
2022-10-09T14:53:04.055Z,22.62
2022-10-09T14:55:35.330Z,22.55
2022-10-09T14:58:02.940Z,22.53
2022-10-09T15:00:36.903Z,22.54
2022-10-09T15:03:05.891Z,22.44
2022-10-09T15:05:35.989Z,22.40
2022-10-09T15:08:03.658Z,22.30
2022-10-09T15:10:31.577Z,22.39
2022-10-09T15:12:59.586Z,22.32
2022-10-09T15:15:31.796Z,22.31
2022-10-09T15:18:00.371Z,22.31
2022-10-09T15:20:29.351Z,22.20
2022-10-09T15:22:57.396Z,22.18
2022-10-09T15:25:25.541Z,22.20
2022-10-09T15:27:54.917Z,22.13
2022-10-09T15:30:31.560Z,22.08
2022-10-09T15:33:01.889Z,22.00
2022-10-09T15:35:30.890Z,22.00
2022-10-09T15:37:58.592Z,21.89
2022-10-09T15:40:26.240Z,21.85
2022-10-09T15:42:53.908Z,21.80
2022-10-09T15:45:21.607Z,21.76
2022-10-09T15:47:51.371Z,21.68
2022-10-09T15:50:19.304Z,21.56
2022-10-09T15:52:48.590Z,21.58
2022-10-09T15:55:16.446Z,21.55
2022-10-09T15:57:44.141Z,21.50
2022-10-09T16:00:12.739Z,21.45
2022-10-09T16:02:40.444Z,21.41
2022-10-09T16:05:08.688Z,21.37
2022-10-09T16:07:36.422Z,21.31
2022-10-09T16:10:05.999Z,21.27
2022-10-09T16:12:33.760Z,21.21
2022-10-09T16:15:01.517Z,21.18
2022-10-09T16:17:29.280Z,21.08
2022-10-09T16:19:56.981Z,21.00
2022-10-09T16:22:24.679Z,20.71
2022-10-09T16:24:52.261Z,20.84
2022-10-09T16:27:21.605Z,20.81
2022-10-09T16:29:49.194Z,20.75
2022-10-09T16:32:17.217Z,20.48
2022-10-09T16:34:44.820Z,20.59
2022-10-09T16:37:12.478Z,20.48
2022-10-09T16:39:40.096Z,20.42
2022-10-09T16:42:07.674Z,20.28
2022-10-09T16:44:36.759Z,20.11
2022-10-09T16:47:05.508Z,20.11
2022-10-09T16:49:33.123Z,20.01
2022-10-09T16:52:01.360Z,19.87
2022-10-09T16:54:29.175Z,19.76
2022-10-09T16:56:56.887Z,19.65
2022-10-09T16:59:24.620Z,19.55
2022-10-09T17:01:55.063Z,19.31
2022-10-09T17:04:22.704Z,19.37
2022-10-09T17:07:00.338Z,19.18
2022-10-09T17:09:29.430Z,19.13
2022-10-09T17:14:24.888Z,18.82
2022-10-09T17:16:54.064Z,18.81
2022-10-09T17:19:21.737Z,18.72
2022-10-09T17:21:49.520Z,18.46
2022-10-09T17:24:17.273Z,18.52
2022-10-09T17:26:44.936Z,18.37
2022-10-09T17:29:13.332Z,18.30
2022-10-09T17:31:41.148Z,18.19
2022-10-09T17:34:10.397Z,18.14
2022-10-09T17:36:39.392Z,18.08
2022-10-09T17:39:08.122Z,17.97
2022-10-09T17:41:35.991Z,17.91
2022-10-09T17:44:03.980Z,17.89
2022-10-09T17:46:31.746Z,17.82
2022-10-09T17:48:59.944Z,17.77
2022-10-09T17:51:29.969Z,17.72
2022-10-09T17:56:31.524Z,17.62
2022-10-09T17:58:59.500Z,17.55
2022-10-09T18:01:27.322Z,17.53
2022-10-09T18:03:55.085Z,17.46
2022-10-09T18:06:23.795Z,17.36
2022-10-09T18:08:53.953Z,17.28
2022-10-09T18:11:23.246Z,17.27
2022-10-09T18:13:50.942Z,17.26
2022-10-09T18:16:20.406Z,17.20
2022-10-09T18:18:48.028Z,17.19
2022-10-09T18:21:16.880Z,17.14
2022-10-09T18:23:44.768Z,17.10
2022-10-09T18:26:15.150Z,17.07
2022-10-09T18:28:44.819Z,17.02
2022-10-09T18:31:18.825Z,17.01
2022-10-09T18:33:46.506Z,16.98
2022-10-09T18:36:19.430Z,16.89
2022-10-09T18:38:48.585Z,16.89
2022-10-09T18:41:17.529Z,16.87
2022-10-09T18:43:45.205Z,16.79
2022-10-09T18:46:13.097Z,16.80
2022-10-09T18:48:41.107Z,16.31
2022-10-09T18:51:10.015Z,16.71
2022-10-09T18:53:38.035Z,16.65
2022-10-09T18:56:06.065Z,16.60
2022-10-09T18:58:35.309Z,16.55
2022-10-09T19:01:07.251Z,16.51
2022-10-09T19:03:36.550Z,16.48
2022-10-09T19:06:04.662Z,16.29
2022-10-09T19:08:32.613Z,16.39
2022-10-09T19:11:00.421Z,16.32
2022-10-09T19:13:28.604Z,16.06
2022-10-09T19:15:59.224Z,16.28
2022-10-09T19:18:27.270Z,16.27
2022-10-09T19:20:55.183Z,16.12
2022-10-09T19:23:23.146Z,16.00
2022-10-09T19:25:51.630Z,15.94
2022-10-09T19:28:19.605Z,16.11
2022-10-09T19:30:47.288Z,16.08
2022-10-09T19:33:16.261Z,16.04
2022-10-09T19:35:47.845Z,16.00
2022-10-09T19:38:15.554Z,15.97
2022-10-09T19:40:43.278Z,15.95
2022-10-09T19:43:10.962Z,15.91
2022-10-09T19:45:38.621Z,15.88
2022-10-09T19:48:06.562Z,15.86
2022-10-09T19:50:40.281Z,15.80
2022-10-09T19:53:08.273Z,15.78
2022-10-09T19:55:36.194Z,15.74
2022-10-09T19:58:04.012Z,15.69
2022-10-09T20:00:31.930Z,15.70
2022-10-09T20:02:59.776Z,15.70
2022-10-09T20:05:27.635Z,15.68
2022-10-09T20:07:56.760Z,15.67
2022-10-09T20:10:24.575Z,15.68
2022-10-09T20:12:52.835Z,15.67
2022-10-09T20:15:22.001Z,15.66
2022-10-09T20:17:50.015Z,15.65
2022-10-09T20:20:17.926Z,15.66
2022-10-09T20:22:45.550Z,15.71
2022-10-09T20:25:14.529Z,15.72
2022-10-09T20:27:42.184Z,15.76
2022-10-09T20:30:10.946Z,15.72
2022-10-09T20:32:38.629Z,15.83
2022-10-09T20:35:07.184Z,15.81
2022-10-09T20:37:35.116Z,15.80
2022-10-09T20:40:03.038Z,15.49
2022-10-09T20:42:32.229Z,15.82
2022-10-09T20:45:00.233Z,15.86
2022-10-09T20:47:28.007Z,15.89
2022-10-09T20:49:55.643Z,15.92
2022-10-09T20:52:23.221Z,15.93
2022-10-09T20:54:50.979Z,15.93
2022-10-09T20:57:20.019Z,15.93
2022-10-09T20:59:49.135Z,15.93
2022-10-09T21:02:16.892Z,15.96
2022-10-09T21:04:44.672Z,15.98
2022-10-09T21:07:12.474Z,15.97
2022-10-09T21:09:40.264Z,16.01
2022-10-09T21:12:08.277Z,16.03
2022-10-09T21:14:35.842Z,16.04
2022-10-09T21:17:04.801Z,16.08
2022-10-09T21:19:32.444Z,16.15
2022-10-09T21:22:00.003Z,16.15
2022-10-09T21:24:27.736Z,16.15
2022-10-09T21:26:55.319Z,16.21
2022-10-09T21:29:23.167Z,16.29
2022-10-09T21:31:50.754Z,16.33
2022-10-09T21:34:19.776Z,16.35
2022-10-09T21:37:08.954Z,16.06
2022-10-09T21:39:35.542Z,16.39
2022-10-09T21:42:03.228Z,16.37
2022-10-09T21:44:31.057Z,16.40
2022-10-09T21:46:58.745Z,16.35
2022-10-09T21:49:28.344Z,16.37
2022-10-09T21:51:55.921Z,16.43
2022-10-09T21:54:23.555Z,16.38
2022-10-09T21:56:51.436Z,16.45
2022-10-09T21:59:19.104Z,16.48
2022-10-09T22:01:46.758Z,16.47
2022-10-09T22:04:14.517Z,16.46
2022-10-09T22:06:43.722Z,16.47
2022-10-09T22:09:11.399Z,16.50
2022-10-09T22:11:41.409Z,16.38
2022-10-09T22:14:09.082Z,16.53
2022-10-09T22:16:36.789Z,16.56
2022-10-09T22:19:04.395Z,16.52
2022-10-09T22:21:32.198Z,16.54
2022-10-09T22:24:01.506Z,16.51
2022-10-09T22:26:30.276Z,16.56
2022-10-09T22:28:58.149Z,16.49
2022-10-09T22:31:27.652Z,16.52
2022-10-09T22:33:55.950Z,16.32
2022-10-09T22:36:24.787Z,16.55
2022-10-09T22:38:53.820Z,16.50
2022-10-09T22:41:22.882Z,16.49
2022-10-09T22:43:51.540Z,16.50
2022-10-09T22:46:19.847Z,16.46
2022-10-09T22:48:47.709Z,16.46
2022-10-09T22:51:16.807Z,16.49
2022-10-09T22:53:44.978Z,16.20
2022-10-09T22:56:13.893Z,16.46
2022-10-09T22:58:42.928Z,16.48
2022-10-09T23:01:11.787Z,16.52
2022-10-09T23:03:39.388Z,16.46
2022-10-09T23:06:09.029Z,16.42
2022-10-09T23:08:37.746Z,16.37
2022-10-09T23:11:05.470Z,16.37
2022-10-09T23:16:09.817Z,16.34
2022-10-09T23:18:37.412Z,16.33
2022-10-09T23:21:05.738Z,16.23
2022-10-09T23:23:34.008Z,16.37
2022-10-09T23:26:04.883Z,16.28
2022-10-09T23:28:32.462Z,16.27
2022-10-09T23:31:04.056Z,16.28
2022-10-09T23:33:33.020Z,16.33
2022-10-09T23:36:02.707Z,16.22
2022-10-09T23:38:30.280Z,16.24
2022-10-09T23:40:58.260Z,16.18
2022-10-09T23:43:25.888Z,16.14
2022-10-09T23:45:55.307Z,16.15
2022-10-09T23:48:22.930Z,16.12
2022-10-09T23:50:52.097Z,16.02
2022-10-09T23:53:19.846Z,16.09
2022-10-09T23:55:47.558Z,16.13
2022-10-09T23:58:18.516Z,16.07
